createdAt,value
2017-04-30T00:00:01.295Z,18.28
2017-04-30T00:01:01.936Z,18.20
2017-04-30T00:02:02.574Z,18.25
2017-04-30T00:03:03.212Z,18.19
2017-04-30T00:04:03.848Z,18.26
2017-04-30T00:05:04.689Z,18.23
2017-04-30T00:06:05.329Z,18.19
2017-04-30T00:07:05.970Z,18.20
2017-04-30T00:08:06.610Z,18.20
2017-04-30T00:09:07.259Z,18.18
2017-04-30T00:10:07.888Z,18.19
2017-04-30T00:11:08.530Z,18.22
2017-04-30T00:12:09.171Z,18.20
2017-04-30T00:13:10.013Z,18.22
2017-04-30T00:14:10.600Z,18.20
2017-04-30T00:15:11.241Z,18.20
2017-04-30T00:16:11.881Z,18.22
2017-04-30T00:17:12.519Z,18.22
2017-04-30T00:18:13.156Z,18.20
2017-04-30T00:19:13.796Z,18.11
2017-04-30T00:20:14.439Z,18.15
2017-04-30T00:21:15.089Z,18.19
2017-04-30T00:22:15.923Z,18.08
2017-04-30T00:23:16.563Z,18.07
2017-04-30T00:24:17.205Z,18.04
2017-04-30T00:25:17.794Z,18.07
2017-04-30T00:26:18.436Z,18.07
2017-04-30T00:27:19.075Z,18.03
2017-04-30T00:28:19.716Z,18.01
2017-04-30T00:29:20.351Z,18.07
2017-04-30T00:30:21.192Z,18.08
2017-04-30T00:31:21.829Z,18.10
2017-04-30T00:32:22.468Z,18.16
2017-04-30T00:33:23.111Z,18.10
2017-04-30T00:34:23.805Z,18.05
2017-04-30T00:35:24.447Z,18.08
2017-04-30T00:36:25.084Z,18.10
2017-04-30T00:37:25.726Z,18.03
2017-04-30T00:38:26.563Z,18.01
2017-04-30T00:39:27.204Z,18.01
2017-04-30T00:40:27.841Z,18.10
2017-04-30T00:41:28.485Z,17.97
2017-04-30T00:42:29.120Z,18.01
2017-04-30T00:43:29.761Z,18.03
2017-04-30T00:44:30.398Z,18.04
2017-04-30T00:45:31.037Z,18.10
2017-04-30T00:46:31.882Z,18.11
2017-04-30T00:47:32.520Z,18.11
2017-04-30T00:48:33.164Z,18.05
2017-04-30T00:49:33.798Z,18.05
2017-04-30T00:50:34.441Z,18.07
2017-04-30T00:51:35.076Z,18.10
2017-04-30T00:52:35.712Z,18.08
2017-04-30T00:53:36.352Z,18.07
2017-04-30T00:54:37.190Z,18.08
2017-04-30T00:55:37.835Z,18.15
2017-04-30T00:56:38.472Z,18.13
2017-04-30T00:57:39.114Z,18.04
2017-04-30T00:58:39.756Z,18.07
2017-04-30T00:59:40.395Z,18.11
2017-04-30T01:00:41.039Z,18.00
2017-04-30T01:01:41.680Z,17.98
2017-04-30T01:02:42.321Z,18.01
2017-04-30T01:03:43.162Z,17.98
2017-04-30T01:04:43.801Z,17.97
2017-04-30T01:05:44.443Z,18.04
2017-04-30T01:06:45.086Z,17.97
2017-04-30T01:07:45.727Z,17.98
2017-04-30T01:08:46.365Z,17.97
2017-04-30T01:09:46.997Z,17.98
2017-04-30T01:10:47.638Z,18.00
2017-04-30T01:11:48.422Z,17.95
2017-04-30T01:12:49.062Z,18.00
2017-04-30T01:13:49.703Z,18.00
2017-04-30T01:14:50.345Z,17.98
2017-04-30T01:15:50.982Z,18.00
2017-04-30T01:16:51.621Z,17.90
2017-04-30T01:17:52.261Z,17.97
2017-04-30T01:18:52.904Z,17.89
2017-04-30T01:19:53.740Z,17.85
2017-04-30T01:20:54.380Z,17.82
2017-04-30T01:21:55.016Z,17.78
2017-04-30T01:22:55.657Z,17.80
2017-04-30T01:23:56.305Z,17.72
2017-04-30T01:24:56.941Z,17.74
2017-04-30T01:25:57.578Z,17.70
2017-04-30T01:26:58.217Z,17.72
2017-04-30T01:27:59.058Z,17.67
2017-04-30T01:28:59.700Z,17.57
2017-04-30T01:30:00.340Z,17.59
2017-04-30T01:31:00.983Z,17.51
2017-04-30T01:32:01.622Z,17.49
2017-04-30T01:33:02.263Z,17.48
2017-04-30T01:34:02.902Z,17.42
2017-04-30T01:35:03.544Z,17.44
2017-04-30T01:36:04.189Z,17.38
2017-04-30T01:37:05.027Z,17.48
2017-04-30T01:38:05.670Z,17.46
2017-04-30T01:39:06.310Z,17.44
2017-04-30T01:40:06.951Z,17.44
2017-04-30T01:41:07.595Z,17.42
2017-04-30T01:42:08.237Z,17.44
2017-04-30T01:43:08.878Z,17.38
2017-04-30T01:44:09.519Z,17.45
2017-04-30T01:45:10.418Z,17.46
2017-04-30T01:46:11.059Z,17.33
2017-04-30T01:47:11.706Z,17.36
2017-04-30T01:48:12.340Z,17.48
2017-04-30T01:49:12.982Z,17.44
2017-04-30T01:50:13.623Z,17.42
2017-04-30T01:51:14.265Z,17.44
2017-04-30T01:52:14.903Z,17.44
2017-04-30T01:53:15.740Z,17.45
2017-04-30T01:54:16.384Z,17.42
2017-04-30T01:55:17.023Z,17.46
2017-04-30T01:56:17.665Z,17.52
2017-04-30T01:57:18.301Z,17.59
2017-04-30T01:58:18.950Z,17.54
2017-04-30T01:59:19.905Z,17.51
2017-04-30T02:00:20.548Z,17.56
2017-04-30T02:01:21.385Z,17.56
2017-04-30T02:02:22.029Z,17.49
2017-04-30T02:03:22.667Z,17.54
2017-04-30T02:04:23.305Z,17.65
2017-04-30T02:05:23.954Z,17.57
2017-04-30T02:06:24.587Z,17.63
2017-04-30T02:07:25.222Z,17.67
2017-04-30T02:08:25.864Z,17.60
2017-04-30T02:09:26.706Z,17.70
2017-04-30T02:10:27.347Z,17.65
2017-04-30T02:11:27.985Z,17.68
2017-04-30T02:12:28.620Z,17.70
2017-04-30T02:13:29.262Z,17.70
2017-04-30T02:14:29.899Z,17.65
2017-04-30T02:15:30.540Z,17.68
2017-04-30T02:16:31.181Z,17.65
2017-04-30T02:17:31.820Z,17.64
2017-04-30T02:18:32.610Z,17.59
2017-04-30T02:19:33.254Z,17.59
2017-04-30T02:20:33.894Z,17.54
2017-04-30T02:21:34.533Z,17.49
2017-04-30T02:22:35.173Z,17.51
2017-04-30T02:23:35.806Z,17.39
2017-04-30T02:24:36.448Z,17.44
2017-04-30T02:25:37.089Z,17.42
2017-04-30T02:26:37.928Z,17.34
2017-04-30T02:27:38.570Z,17.33
2017-04-30T02:28:39.208Z,17.44
2017-04-30T02:29:39.842Z,17.30
2017-04-30T02:30:40.479Z,17.30
2017-04-30T02:31:41.120Z,17.30
2017-04-30T02:32:41.759Z,17.34
2017-04-30T02:33:42.399Z,17.27
2017-04-30T02:34:43.237Z,17.24
2017-04-30T02:35:43.878Z,17.24
2017-04-30T02:36:44.519Z,17.26
2017-04-30T02:37:45.159Z,17.22
2017-04-30T02:38:45.795Z,17.24
2017-04-30T02:39:46.441Z,17.16
2017-04-30T02:40:47.079Z,17.16
2017-04-30T02:41:47.720Z,17.19
2017-04-30T02:42:48.562Z,17.16
2017-04-30T02:43:49.202Z,17.19
2017-04-30T02:44:49.842Z,17.04
2017-04-30T02:45:50.483Z,17.14
2017-04-30T02:46:51.123Z,17.15
2017-04-30T02:47:51.767Z,17.02
2017-04-30T02:48:52.401Z,17.04
2017-04-30T02:49:53.041Z,17.20
2017-04-30T02:50:53.682Z,17.15
2017-04-30T02:51:54.766Z,17.09
2017-04-30T02:52:55.406Z,17.12
2017-04-30T02:53:56.045Z,17.04
2017-04-30T02:54:56.683Z,17.02
2017-04-30T02:55:57.326Z,17.05
2017-04-30T02:56:57.966Z,17.04
2017-04-30T02:57:58.607Z,16.96
2017-04-30T02:58:59.254Z,16.96
2017-04-30T03:00:00.089Z,16.97
2017-04-30T03:01:00.730Z,17.01
2017-04-30T03:02:01.367Z,16.97
2017-04-30T03:03:02.009Z,17.02
2017-04-30T03:04:02.653Z,16.96
2017-04-30T03:05:03.287Z,16.96
2017-04-30T03:06:03.926Z,16.96
2017-04-30T03:07:04.568Z,17.04
2017-04-30T03:08:05.411Z,17.05
2017-04-30T03:09:06.049Z,17.04
2017-04-30T03:10:06.692Z,17.05
2017-04-30T03:11:07.331Z,17.04
2017-04-30T03:12:07.972Z,16.99
2017-04-30T03:13:08.614Z,16.99
2017-04-30T03:14:09.253Z,16.99
2017-04-30T03:15:09.887Z,17.01
2017-04-30T03:16:10.676Z,17.01
2017-04-30T03:17:11.314Z,16.97
2017-04-30T03:18:11.955Z,16.97
2017-04-30T03:19:12.597Z,16.97
2017-04-30T03:20:13.233Z,16.94
2017-04-30T03:21:13.873Z,16.99
2017-04-30T03:22:14.516Z,16.96
2017-04-30T03:23:15.158Z,16.93
2017-04-30T03:24:16.248Z,16.97
2017-04-30T03:25:16.885Z,16.87
2017-04-30T03:26:17.527Z,16.91
2017-04-30T03:27:21.114Z,16.86
2017-04-30T03:28:21.760Z,16.91
2017-04-30T03:29:22.396Z,16.93
2017-04-30T03:30:23.035Z,16.91
2017-04-30T03:31:23.677Z,16.87
2017-04-30T03:32:24.318Z,16.89
2017-04-30T03:33:25.106Z,16.84
2017-04-30T03:34:25.748Z,16.99
2017-04-30T03:35:26.387Z,16.96
2017-04-30T03:36:27.027Z,16.90
2017-04-30T03:37:27.666Z,16.94
2017-04-30T03:38:28.308Z,16.86
2017-04-30T03:39:28.948Z,16.96
2017-04-30T03:40:29.588Z,17.04
2017-04-30T03:41:30.577Z,16.97
2017-04-30T03:42:31.216Z,16.96
2017-04-30T03:43:31.853Z,17.02
2017-04-30T03:44:32.492Z,16.89
2017-04-30T03:45:33.132Z,16.93
2017-04-30T03:46:33.774Z,16.90
2017-04-30T03:47:34.409Z,16.87
2017-04-30T03:48:35.050Z,16.97
2017-04-30T03:49:35.889Z,16.86
2017-04-30T03:50:36.481Z,16.91
2017-04-30T03:51:37.116Z,16.93
2017-04-30T03:52:37.756Z,16.87
2017-04-30T03:53:38.394Z,16.84
2017-04-30T03:54:39.038Z,16.79
2017-04-30T03:55:39.681Z,16.91
2017-04-30T03:56:40.320Z,16.91
2017-04-30T03:57:41.109Z,17.01
2017-04-30T03:58:41.750Z,16.99
2017-04-30T03:59:42.393Z,16.93
2017-04-30T04:00:43.033Z,16.87
2017-04-30T04:01:43.675Z,16.99
2017-04-30T04:02:44.312Z,16.90
2017-04-30T04:03:44.952Z,16.96
2017-04-30T04:04:45.592Z,16.91
2017-04-30T04:05:46.232Z,16.84
2017-04-30T04:06:47.175Z,16.87
2017-04-30T04:07:47.811Z,16.81
2017-04-30T04:08:48.449Z,16.83
2017-04-30T04:09:49.091Z,16.84
2017-04-30T04:10:49.730Z,16.83
2017-04-30T04:11:50.369Z,16.69
2017-04-30T04:12:51.006Z,16.71
2017-04-30T04:13:51.645Z,16.72
2017-04-30T04:14:52.544Z,16.69
2017-04-30T04:15:53.183Z,16.68
2017-04-30T04:16:53.823Z,16.58
2017-04-30T04:17:54.459Z,16.64
2017-04-30T04:18:55.099Z,16.58
2017-04-30T04:19:55.740Z,16.57
2017-04-30T04:20:56.379Z,16.60
2017-04-30T04:21:57.018Z,16.61
2017-04-30T04:22:57.808Z,16.64
2017-04-30T04:23:58.450Z,16.58
2017-04-30T04:24:59.084Z,16.61
2017-04-30T04:25:59.726Z,16.64
2017-04-30T04:27:00.368Z,16.61
2017-04-30T04:28:01.005Z,16.60
2017-04-30T04:29:01.647Z,16.68
2017-04-30T04:30:02.290Z,16.65
2017-04-30T04:31:03.130Z,16.60
2017-04-30T04:32:03.772Z,16.60
2017-04-30T04:33:04.409Z,16.65
2017-04-30T04:34:05.048Z,16.66
2017-04-30T04:35:05.691Z,16.58
2017-04-30T04:36:06.331Z,16.61
2017-04-30T04:37:06.967Z,16.61
2017-04-30T04:38:07.606Z,16.64
2017-04-30T04:39:08.441Z,16.64
2017-04-30T04:40:09.076Z,16.58
2017-04-30T04:41:09.717Z,16.50
2017-04-30T04:42:10.353Z,16.42
2017-04-30T04:43:10.992Z,16.50
2017-04-30T04:44:11.630Z,16.46
2017-04-30T04:45:12.268Z,16.60
2017-04-30T04:46:12.906Z,16.53
2017-04-30T04:47:13.551Z,16.51
2017-04-30T04:48:14.339Z,16.46
2017-04-30T04:49:14.973Z,16.49
2017-04-30T04:50:15.613Z,16.39
2017-04-30T04:51:16.252Z,16.43
2017-04-30T04:52:16.891Z,16.47
2017-04-30T04:53:17.530Z,16.49
2017-04-30T04:54:18.168Z,16.43
2017-04-30T04:55:18.806Z,16.43
2017-04-30T04:56:19.799Z,16.42
2017-04-30T04:57:20.445Z,16.47
2017-04-30T04:58:21.088Z,16.46
2017-04-30T04:59:21.726Z,16.41
2017-04-30T05:00:22.364Z,16.42
2017-04-30T05:01:23.005Z,16.39
2017-04-30T05:02:23.646Z,16.35
2017-04-30T05:03:24.286Z,16.33
2017-04-30T05:04:25.128Z,16.38
2017-04-30T05:05:25.826Z,16.36
2017-04-30T05:06:26.466Z,16.36
2017-04-30T05:07:27.103Z,16.41
2017-04-30T05:08:27.800Z,16.41
2017-04-30T05:09:28.436Z,16.32
2017-04-30T05:10:29.072Z,16.33
2017-04-30T05:11:29.707Z,16.35
2017-04-30T05:12:30.497Z,16.38
2017-04-30T05:13:31.137Z,16.32
2017-04-30T05:14:31.779Z,16.35
2017-04-30T05:15:32.420Z,16.47
2017-04-30T05:16:33.055Z,16.42
2017-04-30T05:17:33.694Z,16.41
2017-04-30T05:18:34.336Z,16.43
2017-04-30T05:19:34.973Z,16.36
2017-04-30T05:20:35.615Z,16.46
2017-04-30T05:21:36.457Z,16.46
2017-04-30T05:22:37.092Z,16.47
2017-04-30T05:23:37.732Z,16.47
2017-04-30T05:24:38.372Z,16.50
2017-04-30T05:25:39.015Z,16.50
2017-04-30T05:26:39.654Z,16.49
2017-04-30T05:27:40.294Z,16.43
2017-04-30T05:28:40.934Z,16.41
2017-04-30T05:29:42.023Z,16.39
2017-04-30T05:30:42.662Z,16.49
2017-04-30T05:31:43.300Z,16.46
2017-04-30T05:32:43.940Z,16.47
2017-04-30T05:33:44.579Z,16.42
2017-04-30T05:34:45.221Z,16.53
2017-04-30T05:35:45.862Z,16.60
2017-04-30T05:36:46.505Z,16.47
2017-04-30T05:37:47.392Z,16.60
2017-04-30T05:38:48.032Z,16.57
2017-04-30T05:39:48.676Z,16.58
2017-04-30T05:40:49.311Z,16.58
2017-04-30T05:41:49.953Z,16.61
2017-04-30T05:42:50.589Z,16.58
2017-04-30T05:43:51.178Z,16.60
2017-04-30T05:44:51.819Z,16.60
2017-04-30T05:45:52.707Z,16.54
2017-04-30T05:46:53.354Z,16.56
2017-04-30T05:47:53.994Z,16.57
2017-04-30T05:48:54.630Z,16.53
2017-04-30T05:49:55.267Z,16.60
2017-04-30T05:50:55.906Z,16.58
2017-04-30T05:51:56.544Z,16.57
2017-04-30T05:52:57.185Z,16.56
2017-04-30T05:53:58.371Z,16.57
2017-04-30T05:54:59.010Z,16.57
2017-04-30T05:55:59.650Z,16.53
2017-04-30T05:57:00.289Z,16.58
2017-04-30T05:58:00.927Z,16.53
2017-04-30T05:59:01.569Z,16.54
2017-04-30T06:00:02.204Z,16.57
2017-04-30T06:01:02.843Z,16.56
2017-04-30T06:02:03.482Z,16.56
2017-04-30T06:03:04.323Z,16.57
2017-04-30T06:04:04.961Z,16.68
2017-04-30T06:05:05.601Z,16.64
2017-04-30T06:06:06.243Z,16.60
2017-04-30T06:07:06.878Z,16.65
2017-04-30T06:08:07.520Z,16.61
2017-04-30T06:09:08.160Z,16.60
2017-04-30T06:10:08.799Z,16.60
2017-04-30T06:11:09.638Z,16.69
2017-04-30T06:12:10.278Z,16.56
2017-04-30T06:13:10.918Z,16.68
2017-04-30T06:14:11.559Z,16.65
2017-04-30T06:15:12.198Z,16.64
2017-04-30T06:16:12.834Z,16.58
2017-04-30T06:17:13.480Z,16.61
2017-04-30T06:18:14.118Z,16.56
2017-04-30T06:19:14.955Z,16.57
2017-04-30T06:20:15.597Z,16.65
2017-04-30T06:21:16.235Z,16.65
2017-04-30T06:22:16.880Z,16.57
2017-04-30T06:23:17.515Z,16.61
2017-04-30T06:24:18.153Z,16.58
2017-04-30T06:25:18.796Z,16.57
2017-04-30T06:26:19.437Z,16.68
2017-04-30T06:27:20.275Z,16.75
2017-04-30T06:28:20.914Z,16.74
2017-04-30T06:29:21.554Z,16.86
2017-04-30T06:30:22.191Z,16.87
2017-04-30T06:31:22.832Z,16.91
2017-04-30T06:32:23.472Z,16.87
2017-04-30T06:33:24.111Z,16.81
2017-04-30T06:34:24.751Z,16.89
2017-04-30T06:35:25.391Z,16.91
2017-04-30T06:36:26.181Z,16.87
2017-04-30T06:37:26.825Z,16.83
2017-04-30T06:38:27.462Z,16.91
2017-04-30T06:39:28.100Z,16.79
2017-04-30T06:40:28.740Z,16.83
2017-04-30T06:41:29.377Z,16.83
2017-04-30T06:42:30.014Z,16.72
2017-04-30T06:43:30.654Z,16.72
2017-04-30T06:44:31.494Z,16.71
2017-04-30T06:45:32.138Z,16.68
2017-04-30T06:46:32.775Z,16.58
2017-04-30T06:47:33.409Z,16.61
2017-04-30T06:48:34.051Z,16.58
2017-04-30T06:49:34.689Z,16.61
2017-04-30T06:50:35.326Z,16.65
2017-04-30T06:51:35.967Z,16.58
2017-04-30T06:52:36.755Z,16.65
2017-04-30T06:53:37.400Z,16.65
2017-04-30T06:54:38.041Z,16.69
2017-04-30T06:55:38.680Z,16.61
2017-04-30T06:56:39.317Z,16.60
2017-04-30T06:57:39.957Z,16.69
2017-04-30T06:58:40.599Z,16.60
2017-04-30T06:59:41.237Z,16.58
2017-04-30T07:00:42.077Z,16.61
2017-04-30T07:01:42.716Z,16.74
2017-04-30T07:02:43.357Z,16.71
2017-04-30T07:03:43.996Z,16.72
2017-04-30T07:04:44.633Z,16.58
2017-04-30T07:05:45.225Z,16.61
2017-04-30T07:06:45.863Z,16.61
2017-04-30T07:07:46.502Z,16.61
2017-04-30T07:08:47.289Z,16.65
2017-04-30T07:09:47.929Z,16.61
2017-04-30T07:10:48.571Z,16.60
2017-04-30T07:11:49.210Z,16.65
2017-04-30T07:12:49.847Z,16.68
2017-04-30T07:13:50.488Z,16.61
2017-04-30T07:14:51.128Z,16.57
2017-04-30T07:15:51.769Z,16.65
2017-04-30T07:16:52.407Z,16.61
2017-04-30T07:17:53.243Z,16.66
2017-04-30T07:18:53.884Z,16.58
2017-04-30T07:19:54.523Z,16.65
2017-04-30T07:20:55.165Z,16.57
2017-04-30T07:21:55.805Z,16.65
2017-04-30T07:22:56.443Z,16.60
2017-04-30T07:23:57.084Z,16.60
2017-04-30T07:24:57.725Z,16.60
2017-04-30T07:25:58.566Z,16.60
2017-04-30T07:26:59.206Z,16.61
2017-04-30T07:27:59.840Z,16.65
2017-04-30T07:29:00.480Z,16.61
2017-04-30T07:30:01.118Z,16.58
2017-04-30T07:31:01.756Z,16.54
2017-04-30T07:32:02.396Z,16.49
2017-04-30T07:33:03.035Z,16.43
2017-04-30T07:34:03.823Z,16.46
2017-04-30T07:35:04.458Z,16.41
2017-04-30T07:36:05.100Z,16.42
2017-04-30T07:37:05.738Z,16.49
2017-04-30T07:38:06.382Z,16.42
2017-04-30T07:39:07.018Z,16.38
2017-04-30T07:40:07.659Z,16.41
2017-04-30T07:41:08.297Z,16.41
2017-04-30T07:42:09.137Z,16.41
2017-04-30T07:43:09.787Z,16.39
2017-04-30T07:44:10.415Z,16.47
2017-04-30T07:45:11.055Z,16.41
2017-04-30T07:46:11.689Z,16.47
2017-04-30T07:47:12.328Z,16.46
2017-04-30T07:48:12.967Z,16.50
2017-04-30T07:49:13.612Z,16.42
2017-04-30T07:50:14.249Z,16.57
2017-04-30T07:51:15.037Z,16.47
2017-04-30T07:52:15.675Z,16.51
2017-04-30T07:53:16.312Z,16.58
2017-04-30T07:54:16.946Z,16.57
2017-04-30T07:55:17.586Z,16.58
2017-04-30T07:56:18.225Z,16.58
2017-04-30T07:57:18.864Z,16.60
2017-04-30T07:58:19.505Z,16.65
2017-04-30T07:59:20.345Z,16.66
2017-04-30T08:00:20.988Z,16.72
2017-04-30T08:01:21.621Z,16.69
2017-04-30T08:02:22.212Z,16.65
2017-04-30T08:03:22.851Z,16.71
2017-04-30T08:04:23.489Z,16.61
2017-04-30T08:05:24.129Z,16.61
2017-04-30T08:06:24.773Z,16.60
2017-04-30T08:07:25.408Z,16.69
2017-04-30T08:08:26.049Z,16.71
2017-04-30T08:09:26.686Z,16.72
2017-04-30T08:10:27.330Z,16.68
2017-04-30T08:11:28.023Z,16.76
2017-04-30T08:12:28.661Z,16.83
2017-04-30T08:13:29.301Z,16.83
2017-04-30T08:14:29.942Z,16.69
2017-04-30T08:15:30.778Z,16.76
2017-04-30T08:16:31.419Z,16.81
2017-04-30T08:17:32.056Z,16.78
2017-04-30T08:18:32.691Z,16.91
2017-04-30T08:19:33.281Z,16.86
2017-04-30T08:20:33.922Z,16.83
2017-04-30T08:21:34.561Z,16.76
2017-04-30T08:22:35.402Z,16.90
2017-04-30T08:23:36.046Z,16.89
2017-04-30T08:24:36.685Z,16.97
2017-04-30T08:25:37.329Z,16.93
2017-04-30T08:26:38.122Z,16.83
2017-04-30T08:27:38.761Z,16.87
2017-04-30T08:28:39.398Z,16.87
2017-04-30T08:29:40.044Z,16.90
2017-04-30T08:30:40.684Z,16.87
2017-04-30T08:31:41.323Z,16.94
2017-04-30T08:32:41.963Z,16.84
2017-04-30T08:33:42.603Z,16.93
2017-04-30T08:34:43.392Z,16.93
2017-04-30T08:35:44.032Z,16.96
2017-04-30T08:36:44.667Z,16.93
2017-04-30T08:37:45.309Z,16.89
2017-04-30T08:38:45.947Z,16.89
2017-04-30T08:39:46.586Z,16.87
2017-04-30T08:40:47.220Z,16.90
2017-04-30T08:41:47.859Z,16.86
2017-04-30T08:42:48.700Z,16.89
2017-04-30T08:43:49.340Z,16.91
2017-04-30T08:44:49.983Z,16.94
2017-04-30T08:45:50.620Z,16.94
2017-04-30T08:46:51.260Z,16.86
2017-04-30T08:47:51.902Z,16.90
2017-04-30T08:48:52.537Z,16.94
2017-04-30T08:49:53.179Z,16.94
2017-04-30T08:50:53.820Z,16.91
2017-04-30T08:51:54.611Z,16.96
2017-04-30T08:52:55.250Z,16.96
2017-04-30T08:53:55.891Z,17.02
2017-04-30T08:54:56.587Z,17.12
2017-04-30T08:55:57.227Z,17.12
2017-04-30T08:56:57.866Z,17.27
2017-04-30T08:57:58.510Z,17.26
2017-04-30T08:58:59.147Z,17.34
2017-04-30T08:59:59.940Z,17.34
2017-04-30T09:01:00.583Z,17.41
2017-04-30T09:02:01.279Z,17.41
2017-04-30T09:03:01.920Z,17.44
2017-04-30T09:04:02.558Z,17.45
2017-04-30T09:05:03.198Z,17.39
2017-04-30T09:06:03.890Z,17.46
2017-04-30T09:07:04.729Z,17.44
2017-04-30T09:08:05.372Z,17.48
2017-04-30T09:09:06.008Z,17.52
2017-04-30T09:10:06.950Z,17.52
2017-04-30T09:11:07.591Z,17.51
2017-04-30T09:12:08.381Z,17.54
2017-04-30T09:13:09.022Z,17.60
2017-04-30T09:14:09.668Z,17.56
2017-04-30T09:15:10.306Z,17.59
2017-04-30T09:16:10.945Z,17.60
2017-04-30T09:17:11.587Z,17.70
2017-04-30T09:18:12.225Z,17.68
2017-04-30T09:19:12.871Z,17.71
2017-04-30T09:20:13.709Z,17.65
2017-04-30T09:21:14.666Z,17.65
2017-04-30T09:22:15.307Z,17.65
2017-04-30T09:23:15.946Z,17.68
2017-04-30T09:24:16.588Z,17.68
2017-04-30T09:25:17.230Z,17.70
2017-04-30T09:26:17.869Z,17.71
2017-04-30T09:27:18.536Z,17.70
2017-04-30T09:28:19.352Z,17.71
2017-04-30T09:29:19.992Z,17.70
2017-04-30T09:30:20.632Z,17.68
2017-04-30T09:31:21.271Z,17.79
2017-04-30T09:32:21.913Z,17.70
2017-04-30T09:33:22.556Z,17.68
2017-04-30T09:34:23.191Z,17.71
2017-04-30T09:35:23.833Z,17.68
2017-04-30T09:36:24.628Z,17.72
2017-04-30T09:37:25.273Z,17.68
2017-04-30T09:38:25.918Z,17.78
2017-04-30T09:39:26.563Z,17.74
2017-04-30T09:40:27.207Z,17.86
2017-04-30T09:41:27.852Z,17.89
2017-04-30T09:42:28.503Z,17.79
2017-04-30T09:43:29.141Z,17.92
2017-04-30T09:44:29.787Z,17.95
2017-04-30T09:45:30.778Z,18.00
2017-04-30T09:46:31.423Z,18.01
2017-04-30T09:47:32.069Z,17.86
2017-04-30T09:48:32.718Z,17.87
2017-04-30T09:49:33.360Z,17.97
2017-04-30T09:50:34.005Z,17.85
2017-04-30T09:51:34.651Z,17.87
2017-04-30T09:52:35.296Z,17.95
2017-04-30T09:53:36.093Z,17.97
2017-04-30T09:54:36.739Z,17.98
2017-04-30T09:55:37.387Z,17.94
2017-04-30T09:56:38.043Z,18.03
2017-04-30T09:57:38.694Z,17.97
2017-04-30T09:58:39.330Z,17.97
2017-04-30T09:59:39.974Z,18.00
2017-04-30T10:00:40.622Z,17.95
2017-04-30T10:01:41.466Z,17.94
2017-04-30T10:02:42.111Z,17.97
2017-04-30T10:03:42.758Z,17.97
2017-04-30T10:04:43.402Z,17.98
2017-04-30T10:05:44.052Z,18.03
2017-04-30T10:06:44.697Z,18.08
2017-04-30T10:07:45.341Z,18.08
2017-04-30T10:08:45.987Z,18.05
2017-04-30T10:09:46.786Z,18.20
2017-04-30T10:10:47.434Z,18.16
2017-04-30T10:11:48.077Z,18.28
2017-04-30T10:12:48.723Z,18.29
2017-04-30T10:13:49.371Z,18.29
2017-04-30T10:14:50.018Z,18.40
2017-04-30T10:15:50.718Z,18.31
2017-04-30T10:16:51.361Z,18.38
2017-04-30T10:17:52.005Z,18.43
2017-04-30T10:18:52.952Z,18.43
2017-04-30T10:19:53.593Z,18.43
2017-04-30T10:20:54.235Z,18.53
2017-04-30T10:21:54.881Z,18.44
2017-04-30T10:22:55.526Z,18.56
2017-04-30T10:23:56.170Z,18.60
2017-04-30T10:24:56.817Z,18.65
2017-04-30T10:25:57.464Z,18.66
2017-04-30T10:26:58.313Z,18.73
2017-04-30T10:27:58.959Z,18.73
2017-04-30T10:28:59.612Z,18.71
2017-04-30T10:30:00.255Z,18.77
2017-04-30T10:31:00.904Z,18.84
2017-04-30T10:32:01.550Z,18.88
2017-04-30T10:33:02.194Z,18.93
2017-04-30T10:34:02.834Z,18.93
2017-04-30T10:35:03.682Z,18.89
2017-04-30T10:36:04.329Z,18.88
2017-04-30T10:37:04.973Z,19.02
2017-04-30T10:38:05.619Z,19.07
2017-04-30T10:39:06.266Z,18.98
2017-04-30T10:40:06.913Z,19.16
2017-04-30T10:41:07.561Z,19.09
2017-04-30T10:42:08.207Z,19.16
2017-04-30T10:43:09.054Z,19.14
2017-04-30T10:44:09.695Z,19.12
2017-04-30T10:45:10.342Z,19.21
2017-04-30T10:46:10.988Z,19.22
2017-04-30T10:47:11.633Z,19.21
2017-04-30T10:48:12.279Z,19.21
2017-04-30T10:49:12.926Z,19.24
2017-04-30T10:50:13.582Z,19.26
2017-04-30T10:51:14.373Z,19.30
2017-04-30T10:52:15.022Z,19.39
2017-04-30T10:53:15.672Z,19.37
2017-04-30T10:54:16.318Z,19.40
2017-04-30T10:55:16.967Z,19.49
2017-04-30T10:56:17.610Z,19.45
2017-04-30T10:57:18.259Z,19.54
2017-04-30T10:58:18.903Z,19.63
2017-04-30T10:59:19.554Z,19.66
2017-04-30T11:00:20.403Z,19.62
2017-04-30T11:01:21.056Z,19.77
2017-04-30T11:02:21.695Z,19.74
2017-04-30T11:03:22.344Z,19.85
2017-04-30T11:04:22.987Z,19.84
2017-04-30T11:05:23.635Z,19.86
2017-04-30T11:06:24.284Z,19.85
2017-04-30T11:07:24.931Z,19.96
2017-04-30T11:08:25.779Z,19.82
2017-04-30T11:09:26.429Z,19.81
2017-04-30T11:10:27.075Z,19.89
2017-04-30T11:11:27.723Z,19.86
2017-04-30T11:12:28.374Z,19.86
2017-04-30T11:13:29.024Z,20.03
2017-04-30T11:14:29.674Z,20.09
2017-04-30T11:15:30.325Z,20.13
2017-04-30T11:16:31.375Z,20.14
2017-04-30T11:17:32.022Z,20.16
2017-04-30T11:18:32.675Z,20.16
2017-04-30T11:19:33.325Z,20.18
2017-04-30T11:20:33.978Z,20.09
2017-04-30T11:21:34.624Z,20.29
2017-04-30T11:22:35.281Z,20.28
2017-04-30T11:23:35.930Z,20.34
2017-04-30T11:24:36.783Z,20.43
2017-04-30T11:25:37.434Z,20.50
2017-04-30T11:26:38.086Z,20.50
2017-04-30T11:27:38.690Z,20.50
2017-04-30T11:28:39.343Z,20.52
2017-04-30T11:29:39.997Z,20.66
2017-04-30T11:30:40.649Z,20.62
2017-04-30T11:31:41.301Z,20.66
2017-04-30T11:32:41.953Z,20.66
2017-04-30T11:33:42.853Z,20.77
2017-04-30T11:34:43.507Z,20.78
2017-04-30T11:35:44.159Z,20.84
2017-04-30T11:36:44.813Z,20.99
2017-04-30T11:37:45.469Z,20.99
2017-04-30T11:38:46.124Z,21.06
2017-04-30T11:39:46.775Z,21.05
2017-04-30T11:40:47.425Z,21.15
2017-04-30T11:41:48.428Z,21.20
2017-04-30T11:42:49.085Z,21.17
2017-04-30T11:43:49.743Z,21.30
2017-04-30T11:44:50.392Z,21.25
2017-04-30T11:45:51.044Z,21.39
2017-04-30T11:46:51.695Z,21.37
2017-04-30T11:47:52.348Z,21.46
2017-04-30T11:48:52.998Z,21.57
2017-04-30T11:49:53.855Z,21.69
2017-04-30T11:50:54.510Z,21.79
2017-04-30T11:51:55.161Z,21.91
2017-04-30T11:52:55.816Z,21.95
2017-04-30T11:53:56.470Z,21.96
2017-04-30T11:54:57.127Z,21.83
2017-04-30T11:55:57.779Z,21.92
2017-04-30T11:56:58.438Z,21.93
2017-04-30T11:57:59.295Z,22.10
2017-04-30T11:58:59.951Z,22.08
2017-04-30T12:00:00.604Z,22.25
2017-04-30T12:01:01.261Z,22.23
2017-04-30T12:02:01.915Z,22.41
2017-04-30T12:03:02.570Z,22.39
2017-04-30T12:04:03.227Z,22.41
2017-04-30T12:05:03.881Z,22.38
2017-04-30T12:06:04.687Z,22.26
2017-04-30T12:07:05.337Z,22.18
2017-04-30T12:08:05.992Z,22.14
2017-04-30T12:09:06.647Z,22.20
2017-04-30T12:10:07.298Z,22.11
2017-04-30T12:11:07.952Z,22.07
2017-04-30T12:12:08.602Z,22.04
2017-04-30T12:13:09.251Z,22.15
2017-04-30T12:14:09.904Z,22.13
2017-04-30T12:15:10.756Z,22.07
2017-04-30T12:16:11.409Z,22.10
2017-04-30T12:17:12.064Z,22.07
2017-04-30T12:18:12.726Z,22.10
2017-04-30T12:19:13.374Z,22.10
2017-04-30T12:20:14.026Z,22.33
2017-04-30T12:21:14.680Z,22.59
2017-04-30T12:22:15.333Z,22.62
2017-04-30T12:23:16.136Z,22.75
2017-04-30T12:24:16.789Z,22.73
2017-04-30T12:25:17.443Z,22.84
2017-04-30T12:26:18.155Z,23.05
2017-04-30T12:27:18.810Z,23.20
2017-04-30T12:28:19.465Z,23.03
2017-04-30T12:29:20.121Z,23.13
2017-04-30T12:30:20.774Z,23.39
2017-04-30T12:31:21.679Z,23.46
2017-04-30T12:32:22.343Z,23.56
2017-04-30T12:33:22.991Z,23.76
2017-04-30T12:34:23.643Z,23.76
2017-04-30T12:35:24.301Z,23.95
2017-04-30T12:36:24.958Z,23.62
2017-04-30T12:37:25.614Z,23.74
2017-04-30T12:38:26.270Z,23.86
2017-04-30T12:39:27.174Z,23.93
2017-04-30T12:40:27.831Z,24.10
2017-04-30T12:41:28.487Z,24.26
2017-04-30T12:42:29.142Z,24.38
2017-04-30T12:43:29.797Z,24.48
2017-04-30T12:44:30.451Z,24.58
2017-04-30T12:45:31.108Z,24.69
2017-04-30T12:46:31.765Z,24.85
2017-04-30T12:47:32.571Z,24.98
2017-04-30T12:48:33.227Z,25.07
2017-04-30T12:49:33.884Z,25.10
2017-04-30T12:50:34.540Z,25.11
2017-04-30T12:51:35.195Z,25.21
2017-04-30T12:52:35.852Z,25.23
2017-04-30T12:53:36.508Z,25.40
2017-04-30T12:54:37.161Z,25.36
2017-04-30T12:55:37.818Z,25.41
2017-04-30T12:56:38.675Z,25.50
2017-04-30T12:57:39.327Z,25.54
2017-04-30T12:58:39.985Z,25.66
2017-04-30T12:59:40.646Z,25.69
2017-04-30T13:00:41.304Z,25.72